createdAt,value
2017-05-04T00:02:28.607Z,8.20
2017-05-04T00:04:57.581Z,8.20
2017-05-04T00:07:26.538Z,8.20
2017-05-04T00:09:55.455Z,8.10
2017-05-04T00:12:24.438Z,8.10
2017-05-04T00:14:53.408Z,8.20
2017-05-04T00:17:22.369Z,8.10
2017-05-04T00:19:52.440Z,8.10
2017-05-04T00:22:21.393Z,8.10
2017-05-04T00:24:50.359Z,8.20
2017-05-04T00:27:19.628Z,8.30
2017-05-04T00:29:48.578Z,8.30
2017-05-04T00:32:17.543Z,8.30
2017-05-04T00:34:46.518Z,8.40
2017-05-04T00:37:15.489Z,8.30
2017-05-04T00:39:44.357Z,8.40
2017-05-04T00:42:13.354Z,8.30
2017-05-04T00:44:42.676Z,8.40
2017-05-04T00:47:11.641Z,8.40
2017-05-04T00:49:40.601Z,8.40
2017-05-04T00:52:10.643Z,8.40
2017-05-04T00:54:39.600Z,8.50
2017-05-04T00:57:09.304Z,8.40
2017-05-04T00:59:39.288Z,8.30
2017-05-04T01:02:08.203Z,8.40
2017-05-04T01:04:37.815Z,8.30
2017-05-04T01:07:07.177Z,8.40
2017-05-04T01:09:36.127Z,8.30
2017-05-04T01:12:05.097Z,8.30
2017-05-04T01:14:34.817Z,8.20
2017-05-04T01:17:03.779Z,8.10
2017-05-04T01:19:32.873Z,8.10
2017-05-04T01:22:01.822Z,8.10
2017-05-04T01:24:30.780Z,8.10
2017-05-04T01:27:00.511Z,8.00
2017-05-04T01:29:29.505Z,8.00
2017-05-04T01:31:58.481Z,7.90
2017-05-04T01:34:27.475Z,7.90
2017-05-04T01:36:56.465Z,7.90
2017-05-04T01:39:25.353Z,7.80
2017-05-04T01:41:54.460Z,7.80
2017-05-04T01:44:23.418Z,7.70
2017-05-04T01:46:53.116Z,7.70
2017-05-04T01:49:23.182Z,7.60
2017-05-04T01:51:52.154Z,7.60
2017-05-04T01:54:21.110Z,7.60
2017-05-04T01:56:50.377Z,7.60
2017-05-04T01:59:19.326Z,7.60
2017-05-04T02:01:48.276Z,7.60
2017-05-04T02:04:17.238Z,7.50
2017-05-04T02:06:46.185Z,7.50
2017-05-04T02:09:16.157Z,7.50
2017-05-04T02:11:45.881Z,7.50
2017-05-04T02:14:14.827Z,7.50
2017-05-04T02:16:44.083Z,7.50
2017-05-04T02:19:13.785Z,7.40
2017-05-04T02:21:42.736Z,7.50
2017-05-04T02:24:11.741Z,7.40
2017-05-04T02:26:40.688Z,7.40
2017-05-04T02:29:09.676Z,7.40
2017-05-04T02:31:38.643Z,7.40
2017-05-04T02:34:08.348Z,7.40
2017-05-04T02:36:37.301Z,7.40
2017-05-04T02:39:06.258Z,7.40
2017-05-04T02:41:35.224Z,7.40
2017-05-04T02:44:05.279Z,7.40
2017-05-04T02:46:34.230Z,7.40
2017-05-04T02:49:03.928Z,7.40
2017-05-04T02:51:33.013Z,7.40
2017-05-04T02:54:01.882Z,7.40
2017-05-04T02:56:30.866Z,7.30
2017-05-04T02:59:21.678Z,7.30
2017-05-04T03:01:50.654Z,7.20
2017-05-04T03:04:19.605Z,7.20
2017-05-04T03:06:49.308Z,7.20
2017-05-04T03:09:18.998Z,7.10
2017-05-04T03:11:47.969Z,7.10
2017-05-04T03:14:17.626Z,7.10
2017-05-04T03:16:46.978Z,7.10
2017-05-04T03:19:15.917Z,7.10
2017-05-04T03:21:44.959Z,7.10
2017-05-04T03:24:13.950Z,7.10
2017-05-04T03:26:42.907Z,7.10
2017-05-04T03:29:12.154Z,7.00
2017-05-04T03:31:41.117Z,7.00
2017-05-04T03:34:10.069Z,6.90
2017-05-04T03:36:39.325Z,6.90
2017-05-04T03:39:08.264Z,6.90
2017-05-04T03:41:37.223Z,6.90
2017-05-04T03:44:06.939Z,6.90
2017-05-04T03:46:36.648Z,6.90
2017-05-04T03:49:06.401Z,7.00
2017-05-04T03:51:35.352Z,7.00
2017-05-04T03:54:05.331Z,7.00
2017-05-04T03:56:34.291Z,7.10
2017-05-04T03:59:03.251Z,7.10
2017-05-04T04:01:33.325Z,7.10
2017-05-04T04:04:02.280Z,7.20
2017-05-04T04:06:31.232Z,7.20
2017-05-04T04:09:01.006Z,7.30
2017-05-04T04:11:29.984Z,7.30
2017-05-04T04:13:59.312Z,7.40
2017-05-04T04:16:28.279Z,7.40
2017-05-04T04:18:57.232Z,7.50
2017-05-04T04:21:26.233Z,7.50
2017-05-04T04:23:55.182Z,7.50
2017-05-04T04:26:24.154Z,7.50
2017-05-04T04:28:53.089Z,7.60
2017-05-04T04:31:22.797Z,7.60
2017-05-04T04:33:51.741Z,7.60
2017-05-04T04:36:20.716Z,7.70
2017-05-04T04:38:49.687Z,7.80
2017-05-04T04:41:18.991Z,7.80
2017-05-04T04:43:47.955Z,7.90
2017-05-04T04:46:17.701Z,8.00
2017-05-04T04:48:46.708Z,8.10
2017-05-04T04:51:15.682Z,8.10
2017-05-04T04:53:44.705Z,8.10
2017-05-04T04:56:13.681Z,8.20
2017-05-04T04:58:42.654Z,8.30
2017-05-04T05:01:11.607Z,8.40
2017-05-04T05:03:41.340Z,8.40
2017-05-04T05:06:10.299Z,8.60
2017-05-04T05:08:40.022Z,8.70
2017-05-04T05:11:08.889Z,8.80
2017-05-04T05:13:38.187Z,8.90
2017-05-04T05:16:07.892Z,8.90
2017-05-04T05:18:36.847Z,9.00
2017-05-04T05:21:06.144Z,9.10
2017-05-04T05:23:35.029Z,9.20
2017-05-04T05:26:04.029Z,9.30
2017-05-04T05:28:33.008Z,9.30
2017-05-04T05:31:02.030Z,9.40
2017-05-04T05:33:31.309Z,9.50
2017-05-04T05:36:00.279Z,9.60
2017-05-04T05:38:29.228Z,9.70
2017-05-04T05:40:58.946Z,9.80
2017-05-04T05:43:28.659Z,9.80
2017-05-04T05:45:58.665Z,9.90
2017-05-04T05:48:28.370Z,10.00
2017-05-04T05:50:58.009Z,10.10
2017-05-04T05:53:27.146Z,10.20
2017-05-04T05:55:56.099Z,10.20
2017-05-04T05:58:25.088Z,10.20
2017-05-04T06:00:54.058Z,10.30
2017-05-04T06:03:23.024Z,10.30
2017-05-04T06:05:53.090Z,10.40
2017-05-04T06:08:22.057Z,10.50
2017-05-04T06:10:51.011Z,10.50
2017-05-04T06:13:20.282Z,10.60
2017-05-04T06:15:49.293Z,10.60
2017-05-04T06:18:18.251Z,10.70
2017-05-04T06:20:47.363Z,10.70
2017-05-04T06:23:16.313Z,10.80
2017-05-04T06:25:45.287Z,10.90
2017-05-04T06:28:14.293Z,10.90
2017-05-04T06:30:43.287Z,10.80
2017-05-04T06:33:12.627Z,10.80
2017-05-04T06:35:41.586Z,10.90
2017-05-04T06:38:10.571Z,10.90
2017-05-04T06:40:39.876Z,10.90
2017-05-04T06:43:08.840Z,10.90
2017-05-04T06:45:38.581Z,11.00
2017-05-04T06:48:07.561Z,11.10
2017-05-04T06:50:36.528Z,11.20
2017-05-04T06:53:06.600Z,11.20
2017-05-04T06:55:35.558Z,11.30
2017-05-04T06:58:04.522Z,11.40
2017-05-04T07:00:34.261Z,11.50
2017-05-04T07:03:03.218Z,11.60
2017-05-04T07:05:33.309Z,11.70
2017-05-04T07:08:02.271Z,11.80
2017-05-04T07:10:31.247Z,11.90
2017-05-04T07:13:00.597Z,12.00
2017-05-04T07:15:29.556Z,12.10
2017-05-04T07:17:58.536Z,12.20
2017-05-04T07:20:27.520Z,12.30
2017-05-04T07:22:56.487Z,12.30
2017-05-04T07:25:26.562Z,12.40
2017-05-04T07:27:55.522Z,12.50
2017-05-04T07:30:24.559Z,12.60
2017-05-04T07:32:53.535Z,12.80
2017-05-04T07:35:22.459Z,12.90
2017-05-04T07:37:52.103Z,13.00
2017-05-04T07:40:21.096Z,13.20
2017-05-04T07:42:50.427Z,13.30
2017-05-04T07:45:19.393Z,13.40
2017-05-04T07:47:48.378Z,13.40
2017-05-04T07:50:17.618Z,13.40
2017-05-04T07:52:46.597Z,13.40
2017-05-04T07:55:15.566Z,13.40
2017-05-04T07:57:44.902Z,13.50
2017-05-04T08:00:14.655Z,13.50
2017-05-04T08:02:43.614Z,13.50
2017-05-04T08:05:13.274Z,13.50
2017-05-04T08:07:42.290Z,13.60
2017-05-04T08:10:11.545Z,13.70
2017-05-04T08:12:40.522Z,13.70
2017-05-04T08:15:09.512Z,13.90
2017-05-04T08:17:38.520Z,14.10
2017-05-04T08:20:07.474Z,14.30
2017-05-04T08:22:37.578Z,14.40
2017-05-04T08:25:06.549Z,14.60
2017-05-04T08:27:35.503Z,14.60
2017-05-04T08:30:04.467Z,14.80
2017-05-04T08:32:34.185Z,14.90
2017-05-04T08:35:04.243Z,14.90
2017-05-04T08:37:33.209Z,14.80
2017-05-04T08:40:02.210Z,14.80
2017-05-04T08:42:31.218Z,14.80
2017-05-04T08:45:00.184Z,15.00
2017-05-04T08:47:29.512Z,15.00
2017-05-04T08:49:58.497Z,15.00
2017-05-04T08:52:27.451Z,14.90
2017-05-04T08:54:56.818Z,14.90
2017-05-04T08:57:25.805Z,14.90
2017-05-04T08:59:54.762Z,14.90
2017-05-04T09:02:24.016Z,14.90
2017-05-04T09:04:53.724Z,15.00
2017-05-04T09:07:23.822Z,15.00
2017-05-04T09:09:53.547Z,15.20
2017-05-04T09:12:23.531Z,15.30
2017-05-04T09:14:52.473Z,15.40
2017-05-04T09:17:21.621Z,15.60
2017-05-04T09:19:51.013Z,15.70
2017-05-04T09:22:19.936Z,15.80
2017-05-04T09:24:48.932Z,15.90
2017-05-04T09:27:18.645Z,16.00
2017-05-04T09:29:48.371Z,16.10
2017-05-04T09:32:17.615Z,16.10
2017-05-04T09:34:46.582Z,16.10
2017-05-04T09:37:15.566Z,16.10
2017-05-04T09:39:44.570Z,16.10
2017-05-04T09:42:13.602Z,16.20
2017-05-04T09:44:43.800Z,16.30
2017-05-04T09:47:13.554Z,16.50
2017-05-04T09:49:42.519Z,16.70
2017-05-04T09:52:12.264Z,16.90
2017-05-04T09:54:41.242Z,17.10
2017-05-04T09:57:10.589Z,17.20
2017-05-04T09:59:39.514Z,17.30
2017-05-04T10:02:08.487Z,17.30
2017-05-04T10:04:37.729Z,17.40
2017-05-04T10:07:06.728Z,17.40
2017-05-04T10:09:35.675Z,17.70
2017-05-04T10:12:04.664Z,18.10
2017-05-04T10:14:34.279Z,18.50
2017-05-04T10:17:03.659Z,18.80
2017-05-04T10:19:32.632Z,18.90
2017-05-04T10:22:01.623Z,19.10
2017-05-04T10:24:30.946Z,19.30
2017-05-04T10:26:59.918Z,19.40
2017-05-04T10:29:28.900Z,19.50
2017-05-04T10:31:57.851Z,19.60
2017-05-04T10:34:26.954Z,19.80
2017-05-04T10:36:55.930Z,20.00
2017-05-04T10:39:24.901Z,20.00
2017-05-04T10:41:54.983Z,20.10
2017-05-04T10:44:23.946Z,20.30
2017-05-04T10:46:52.925Z,20.60
2017-05-04T10:49:21.916Z,20.80
2017-05-04T10:51:50.884Z,20.60
2017-05-04T10:54:20.967Z,20.30
2017-05-04T10:56:49.946Z,20.00
2017-05-04T10:59:18.935Z,20.10
2017-05-04T11:01:47.941Z,20.40
2017-05-04T11:04:17.012Z,20.70
2017-05-04T11:06:46.022Z,20.50
2017-05-04T11:09:14.976Z,20.30
2017-05-04T11:11:43.958Z,20.00
2017-05-04T11:14:12.947Z,19.90
2017-05-04T11:16:41.931Z,19.80
2017-05-04T11:19:11.554Z,19.80
2017-05-04T11:21:40.903Z,19.80
2017-05-04T11:24:09.874Z,19.60
2017-05-04T11:26:38.897Z,19.50
2017-05-04T11:29:07.887Z,19.40
2017-05-04T11:31:36.841Z,19.40
2017-05-04T11:34:06.349Z,19.80
2017-05-04T11:36:35.297Z,20.50
2017-05-04T11:39:04.991Z,21.30
2017-05-04T11:41:34.709Z,21.80
2017-05-04T11:44:04.393Z,22.20
2017-05-04T11:46:33.692Z,22.60
2017-05-04T11:49:02.737Z,22.80
2017-05-04T11:51:31.739Z,22.40
2017-05-04T11:54:01.053Z,22.10
2017-05-04T11:56:30.023Z,22.20
2017-05-04T11:58:58.980Z,22.00
2017-05-04T12:01:29.119Z,21.70
2017-05-04T12:03:58.135Z,21.90
2017-05-04T12:06:27.076Z,22.60
2017-05-04T12:08:57.057Z,23.40
2017-05-04T12:11:26.028Z,24.10
2017-05-04T12:13:55.004Z,24.70
2017-05-04T12:16:24.009Z,24.90
2017-05-04T12:18:53.006Z,24.40
2017-05-04T12:21:22.323Z,23.50
2017-05-04T12:23:51.297Z,22.70
2017-05-04T12:26:20.156Z,22.40
2017-05-04T12:28:49.171Z,22.50
2017-05-04T12:31:18.121Z,22.20
2017-05-04T12:33:48.111Z,22.10
2017-05-04T12:36:17.056Z,21.90
2017-05-04T12:38:46.010Z,21.80
2017-05-04T12:41:16.105Z,21.50
2017-05-04T12:43:45.113Z,21.00
2017-05-04T12:46:14.813Z,20.60
2017-05-04T12:48:44.185Z,20.30
2017-05-04T12:51:13.144Z,19.90
2017-05-04T12:53:42.117Z,19.50
2017-05-04T12:56:11.851Z,19.20
2017-05-04T12:58:40.881Z,18.90
2017-05-04T13:01:10.161Z,18.70
2017-05-04T13:03:39.128Z,18.50
2017-05-04T13:06:08.104Z,18.30
2017-05-04T13:08:37.102Z,18.20
2017-05-04T13:11:06.069Z,18.10
2017-05-04T13:13:35.781Z,17.90
2017-05-04T13:16:05.488Z,17.70
2017-05-04T13:18:35.556Z,17.60
2017-05-04T13:21:04.538Z,17.40
2017-05-04T13:23:33.490Z,17.40
2017-05-04T13:26:02.748Z,17.20
2017-05-04T13:28:31.718Z,17.10
2017-05-04T13:31:00.732Z,16.90
2017-05-04T13:33:29.730Z,16.90
2017-05-04T13:35:58.691Z,16.80
2017-05-04T13:38:27.946Z,16.80
2017-05-04T13:40:57.703Z,16.70
2017-05-04T13:43:26.712Z,16.70
2017-05-04T13:45:56.016Z,16.80
2017-05-04T13:48:24.980Z,16.70
2017-05-04T13:50:53.915Z,16.40
2017-05-04T13:53:23.931Z,16.10
2017-05-04T13:55:52.938Z,15.70
2017-05-04T13:58:21.943Z,15.40
2017-05-04T14:00:51.275Z,15.30
2017-05-04T14:03:20.160Z,15.10
2017-05-04T14:05:49.150Z,14.90
2017-05-04T14:08:18.145Z,14.80
2017-05-04T14:10:47.132Z,14.80
2017-05-04T14:13:16.430Z,14.80
2017-05-04T14:15:45.421Z,14.90
2017-05-04T14:18:14.394Z,15.20
2017-05-04T14:20:43.402Z,15.90
2017-05-04T14:23:12.379Z,16.30
2017-05-04T14:25:41.740Z,16.40
2017-05-04T14:28:11.423Z,16.30
2017-05-04T14:30:40.389Z,16.00
2017-05-04T14:33:09.386Z,15.70
2017-05-04T14:35:38.342Z,15.40
2017-05-04T14:38:07.593Z,15.20
2017-05-04T14:40:36.575Z,14.80
2017-05-04T14:43:05.519Z,14.40
2017-05-04T14:45:34.861Z,14.20
2017-05-04T14:48:03.824Z,14.00
2017-05-04T14:50:32.779Z,13.80
2017-05-04T14:53:02.761Z,13.60
2017-05-04T14:55:31.765Z,13.50
2017-05-04T14:58:00.736Z,13.40
2017-05-04T15:00:29.797Z,13.40
2017-05-04T15:02:58.793Z,13.30
2017-05-04T15:05:27.746Z,13.30
2017-05-04T15:07:57.453Z,13.20
2017-05-04T15:10:27.181Z,13.20
2017-05-04T15:12:56.154Z,13.20
2017-05-04T15:15:25.909Z,13.20
2017-05-04T15:17:54.894Z,13.20
2017-05-04T15:20:24.188Z,13.10
2017-05-04T15:22:53.155Z,13.10
2017-05-04T15:25:22.126Z,13.00
2017-05-04T15:27:51.874Z,13.00
2017-05-04T15:30:20.846Z,13.00
2017-05-04T15:32:50.117Z,12.90
2017-05-04T15:35:19.116Z,12.90
2017-05-04T15:37:48.817Z,12.80
2017-05-04T15:40:17.797Z,12.70
2017-05-04T15:42:46.769Z,12.60
2017-05-04T15:45:16.072Z,12.50
2017-05-04T15:47:45.089Z,12.40
2017-05-04T15:50:14.057Z,12.30
2017-05-04T15:52:43.361Z,12.20
2017-05-04T15:55:12.227Z,12.10
2017-05-04T15:57:41.250Z,12.10
2017-05-04T16:00:10.253Z,12.00
2017-05-04T16:02:39.261Z,11.90
2017-05-04T16:05:09.313Z,11.90
2017-05-04T16:07:38.279Z,11.90
2017-05-04T16:10:07.256Z,11.80
2017-05-04T16:12:36.270Z,11.80
2017-05-04T16:15:05.248Z,11.80
2017-05-04T16:17:35.335Z,11.80
2017-05-04T16:20:04.320Z,11.90
2017-05-04T16:22:33.328Z,11.80
2017-05-04T16:25:03.440Z,11.80
2017-05-04T16:27:32.421Z,11.80
2017-05-04T16:30:01.421Z,11.80
2017-05-04T16:32:30.414Z,11.70
2017-05-04T16:34:59.448Z,11.70
2017-05-04T16:37:28.777Z,11.70
2017-05-04T16:39:57.761Z,11.70
2017-05-04T16:42:26.725Z,11.60
2017-05-04T16:44:55.729Z,11.50
2017-05-04T16:47:24.711Z,11.40
2017-05-04T16:49:53.706Z,11.40
2017-05-04T16:52:22.702Z,11.30
2017-05-04T16:54:52.019Z,11.30
2017-05-04T16:57:21.006Z,11.40
2017-05-04T16:59:49.995Z,11.30
2017-05-04T17:02:19.331Z,11.40
2017-05-04T17:04:48.304Z,11.40
2017-05-04T17:07:17.265Z,11.40
2017-05-04T17:09:46.280Z,11.40
2017-05-04T17:12:15.157Z,11.40
2017-05-04T17:14:44.210Z,11.40
2017-05-04T17:17:13.217Z,11.50
2017-05-04T17:19:42.585Z,11.50
2017-05-04T17:22:12.299Z,11.50
2017-05-04T17:24:42.318Z,11.50
2017-05-04T17:27:12.017Z,11.50
2017-05-04T17:29:41.729Z,11.50
2017-05-04T17:32:11.452Z,11.50
2017-05-04T17:34:40.413Z,11.50
2017-05-04T17:37:09.444Z,11.50
2017-05-04T17:39:38.432Z,11.40
2017-05-04T17:42:07.696Z,11.40
2017-05-04T17:44:36.691Z,11.30
2017-05-04T17:47:05.650Z,11.30
2017-05-04T17:49:34.644Z,11.30
2017-05-04T17:52:03.618Z,11.30
2017-05-04T17:54:33.094Z,11.10
2017-05-04T17:57:02.087Z,11.00
2017-05-04T17:59:31.095Z,10.90
2017-05-04T18:02:00.063Z,10.80
2017-05-04T18:04:29.071Z,10.80
2017-05-04T18:06:58.407Z,10.80
2017-05-04T18:09:27.402Z,10.70
2017-05-04T18:11:56.389Z,10.70
2017-05-04T18:14:25.702Z,10.70
2017-05-04T18:16:54.587Z,10.70
2017-05-04T18:19:24.334Z,10.60
2017-05-04T18:21:53.340Z,10.60
2017-05-04T18:24:22.333Z,10.50
2017-05-04T18:26:51.665Z,10.50
2017-05-04T18:29:20.647Z,10.50
2017-05-04T18:31:49.629Z,10.40
2017-05-04T18:34:18.636Z,10.40
2017-05-04T18:36:47.610Z,10.40
2017-05-04T18:39:16.599Z,10.30
2017-05-04T18:41:45.574Z,10.20
2017-05-04T18:44:14.915Z,10.20
2017-05-04T18:46:43.906Z,10.10
2017-05-04T18:49:12.927Z,10.10
2017-05-04T18:51:43.112Z,10.00
2017-05-04T18:54:12.153Z,10.00
2017-05-04T18:56:41.152Z,9.90
2017-05-04T18:59:10.354Z,9.90
2017-05-04T19:01:39.352Z,9.80
2017-05-04T19:04:08.341Z,9.80
2017-05-04T19:06:37.655Z,9.80
2017-05-04T19:09:06.620Z,9.80
2017-05-04T19:11:35.618Z,9.80
2017-05-04T19:14:04.620Z,9.80
2017-05-04T19:16:33.631Z,9.80
2017-05-04T19:19:02.645Z,9.80
2017-05-04T19:21:31.621Z,9.80
2017-05-04T19:24:01.906Z,9.80
2017-05-04T19:26:30.896Z,9.80
2017-05-04T19:28:59.889Z,9.80
2017-05-04T19:31:29.274Z,9.80
2017-05-04T19:33:58.297Z,9.80
2017-05-04T19:36:27.276Z,9.80
2017-05-04T19:38:56.533Z,9.80
2017-05-04T19:41:26.268Z,9.70
2017-05-04T19:43:55.225Z,9.70
2017-05-04T19:46:24.238Z,9.70
2017-05-04T19:48:53.950Z,9.70
2017-05-04T19:53:53.088Z,9.70
2017-05-04T19:56:22.041Z,9.60
2017-05-04T19:58:51.806Z,9.60
2017-05-04T20:01:20.701Z,9.60
2017-05-04T20:03:49.771Z,9.60
2017-05-04T20:06:19.020Z,9.60
2017-05-04T20:08:48.726Z,9.60
2017-05-04T20:11:17.694Z,9.60
2017-05-04T20:13:46.694Z,9.60
2017-05-04T20:16:15.614Z,9.60
2017-05-04T20:18:44.643Z,9.60
2017-05-04T20:21:13.594Z,9.70
2017-05-04T20:23:43.694Z,9.60
2017-05-04T20:26:12.658Z,9.60
2017-05-04T20:28:41.611Z,9.60
2017-05-04T20:31:10.946Z,9.50
2017-05-04T20:33:39.899Z,9.50
2017-05-04T20:36:08.858Z,9.40
2017-05-04T20:38:37.827Z,9.40
2017-05-04T20:41:06.700Z,9.40
2017-05-04T20:43:36.028Z,9.40
2017-05-04T20:46:04.988Z,9.40
2017-05-04T20:48:33.870Z,9.40
2017-05-04T20:51:03.208Z,9.30
2017-05-04T20:53:32.183Z,9.30
2017-05-04T20:56:01.148Z,9.30
2017-05-04T20:58:30.471Z,9.30
2017-05-04T21:00:59.492Z,9.40
2017-05-04T21:03:29.198Z,9.40
2017-05-04T21:05:59.274Z,9.40
2017-05-04T21:08:28.133Z,9.40
2017-05-04T21:10:57.109Z,9.30
2017-05-04T21:13:35.363Z,9.30
2017-05-04T21:16:04.331Z,9.30
2017-05-04T21:18:33.566Z,9.40
2017-05-04T21:21:04.120Z,9.40
2017-05-04T21:23:33.483Z,9.40
2017-05-04T21:26:02.371Z,9.40
2017-05-04T21:28:31.996Z,9.30
2017-05-04T21:31:01.370Z,9.40
2017-05-04T21:33:30.382Z,9.30
2017-05-04T21:35:59.326Z,9.40
2017-05-04T21:38:28.314Z,9.30
2017-05-04T21:40:57.283Z,9.30
2017-05-04T21:43:26.890Z,9.30
2017-05-04T21:45:55.880Z,9.30
2017-05-04T21:48:24.849Z,9.30
2017-05-04T21:50:53.868Z,9.20
2017-05-04T21:53:23.590Z,9.20
2017-05-04T21:55:52.540Z,9.20
2017-05-04T21:58:21.499Z,9.10
2017-05-04T22:00:50.460Z,9.20
2017-05-04T22:03:19.719Z,9.20
2017-05-04T22:05:48.991Z,9.20
2017-05-04T22:08:17.928Z,9.20
2017-05-04T22:10:47.945Z,9.20
2017-05-04T22:13:17.639Z,9.20
2017-05-04T22:15:46.586Z,9.20
2017-05-04T22:18:15.821Z,9.20
2017-05-04T22:20:44.780Z,9.20
2017-05-04T22:23:14.053Z,9.20
2017-05-04T22:25:44.007Z,9.10
2017-05-04T22:28:12.962Z,9.10
2017-05-04T22:30:42.289Z,9.10
2017-05-04T22:33:11.222Z,9.10
2017-05-04T22:35:40.965Z,9.10
2017-05-04T22:38:10.305Z,9.00
2017-05-04T22:40:39.269Z,9.00
2017-05-04T22:43:08.128Z,9.00
2017-05-04T22:45:37.142Z,9.00
2017-05-04T22:48:06.116Z,8.90
2017-05-04T22:50:35.369Z,8.90
2017-05-04T22:53:04.322Z,8.90
2017-05-04T22:55:33.279Z,8.90
2017-05-04T22:58:02.246Z,8.90
2017-05-04T23:00:31.193Z,8.90
2017-05-04T23:03:00.462Z,8.90
2017-05-04T23:05:29.415Z,8.90
2017-05-04T23:07:58.377Z,9.00
2017-05-04T23:10:27.613Z,9.00
2017-05-04T23:12:57.319Z,9.00
2017-05-04T23:15:26.248Z,9.00
2017-05-04T23:17:55.249Z,9.00
2017-05-04T23:20:24.194Z,9.00
2017-05-04T23:22:53.897Z,9.00
2017-05-04T23:25:23.593Z,9.00
2017-05-04T23:27:52.583Z,8.90
2017-05-04T23:30:21.539Z,9.00
2017-05-04T23:32:50.892Z,9.00
2017-05-04T23:35:20.598Z,9.00
2017-05-04T23:37:50.335Z,9.00
2017-05-04T23:40:19.294Z,9.00
2017-05-04T23:42:49.001Z,9.00
2017-05-04T23:45:19.126Z,9.00
2017-05-04T23:47:48.815Z,9.00
2017-05-04T23:50:17.783Z,9.00
2017-05-04T23:52:46.777Z,9.00
2017-05-04T23:55:15.711Z,9.00
2017-05-04T23:57:45.445Z,9.00
